sensor_id;sensor_type;location;lat;lon;timestamp;pressure;altitude;pressure_sealevel;temperature;humidity
15998;BME280;8103;51.340;12.326;2023-04-27T00:00:32;100576.09;;;5.97;66.37
15998;BME280;8103;51.340;12.326;2023-04-27T00:02:59;100573.66;;;5.96;66.72
15998;BME280;8103;51.340;12.326;2023-04-27T00:05:36;100577.34;;;5.95;66.05
15998;BME280;8103;51.340;12.326;2023-04-27T00:08:05;100565.88;;;5.94;66.89
15998;BME280;8103;51.340;12.326;2023-04-27T00:10:33;100570.16;;;5.95;66.25
15998;BME280;8103;51.340;12.326;2023-04-27T00:13:00;100565.88;;;5.94;66.15
15998;BME280;8103;51.340;12.326;2023-04-27T00:15:28;100561.38;;;5.95;66.46
15998;BME280;8103;51.340;12.326;2023-04-27T00:17:54;100565.88;;;5.94;66.97
15998;BME280;8103;51.340;12.326;2023-04-27T00:20:23;100563.66;;;5.91;67.06
15998;BME280;8103;51.340;12.326;2023-04-27T00:22:50;100567.75;;;5.87;66.61
15998;BME280;8103;51.340;12.326;2023-04-27T00:25:17;100561.03;;;5.85;66.46
15998;BME280;8103;51.340;12.326;2023-04-27T00:27:44;100556.94;;;5.82;67.10
15998;BME280;8103;51.340;12.326;2023-04-27T00:30:11;100565.94;;;5.81;66.84
15998;BME280;8103;51.340;12.326;2023-04-27T00:32:39;100566.34;;;5.78;66.93
15998;BME280;8103;51.340;12.326;2023-04-27T00:35:08;100559.81;;;5.74;67.00
15998;BME280;8103;51.340;12.326;2023-04-27T00:37:35;100563.94;;;5.70;67.83
15998;BME280;8103;51.340;12.326;2023-04-27T00:40:06;100564.16;;;5.69;67.95
15998;BME280;8103;51.340;12.326;2023-04-27T00:42:34;100558.63;;;5.64;67.67
15998;BME280;8103;51.340;12.326;2023-04-27T00:45:01;100562.34;;;5.56;67.32
15998;BME280;8103;51.340;12.326;2023-04-27T00:47:30;100555.81;;;5.52;66.91
15998;BME280;8103;51.340;12.326;2023-04-27T00:49:59;100561.97;;;5.46;66.98
15998;BME280;8103;51.340;12.326;2023-04-27T00:52:27;100558.09;;;5.42;67.76
15998;BME280;8103;51.340;12.326;2023-04-27T00:54:56;100557.06;;;5.43;67.64
15998;BME280;8103;51.340;12.326;2023-04-27T00:57:23;100558.69;;;5.44;67.51
15998;BME280;8103;51.340;12.326;2023-04-27T00:59:50;100560.56;;;5.44;67.87
15998;BME280;8103;51.340;12.326;2023-04-27T01:02:20;100569.16;;;5.39;68.12
15998;BME280;8103;51.340;12.326;2023-04-27T01:04:49;100569.56;;;5.36;68.24
15998;BME280;8103;51.340;12.326;2023-04-27T01:07:16;100565.72;;;5.32;68.21
15998;BME280;8103;51.340;12.326;2023-04-27T01:09:44;100568.38;;;5.26;68.16
15998;BME280;8103;51.340;12.326;2023-04-27T01:12:12;100572.69;;;5.20;68.91
15998;BME280;8103;51.340;12.326;2023-04-27T01:14:39;100574.72;;;5.18;68.92
15998;BME280;8103;51.340;12.326;2023-04-27T01:17:06;100579.63;;;5.15;68.87
15998;BME280;8103;51.340;12.326;2023-04-27T01:19:34;100576.38;;;5.13;68.52
15998;BME280;8103;51.340;12.326;2023-04-27T01:22:01;100576.59;;;5.11;68.65
15998;BME280;8103;51.340;12.326;2023-04-27T01:24:28;100583.72;;;5.11;68.81
15998;BME280;8103;51.340;12.326;2023-04-27T01:26:57;100582.09;;;5.10;68.85
15998;BME280;8103;51.340;12.326;2023-04-27T01:29:24;100582.31;;;5.08;69.29
15998;BME280;8103;51.340;12.326;2023-04-27T01:31:52;100589.25;;;5.09;68.23
15998;BME280;8103;51.340;12.326;2023-04-27T01:34:19;100585.59;;;5.10;68.99
15998;BME280;8103;51.340;12.326;2023-04-27T01:36:46;100585.78;;;5.09;69.08
15998;BME280;8103;51.340;12.326;2023-04-27T01:39:12;100586.22;;;5.06;68.92
15998;BME280;8103;51.340;12.326;2023-04-27T01:41:39;100586.41;;;5.04;69.08
15998;BME280;8103;51.340;12.326;2023-04-27T01:44:07;100586.41;;;5.04;69.00
15998;BME280;8103;51.340;12.326;2023-04-27T01:46:34;100590.69;;;5.05;68.84
15998;BME280;8103;51.340;12.326;2023-04-27T01:49:01;100592.31;;;5.06;68.79
15998;BME280;8103;51.340;12.326;2023-04-27T01:51:28;100587.41;;;5.03;68.98
15998;BME280;8103;51.340;12.326;2023-04-27T01:53:55;100588.66;;;5.01;68.92
15998;BME280;8103;51.340;12.326;2023-04-27T01:56:22;100591.50;;;4.99;68.51
15998;BME280;8103;51.340;12.326;2023-04-27T01:58:49;100594.16;;;4.99;69.16
15998;BME280;8103;51.340;12.326;2023-04-27T02:01:18;100592.34;;;5.00;68.45
15998;BME280;8103;51.340;12.326;2023-04-27T02:03:44;100600.53;;;4.98;69.56
15998;BME280;8103;51.340;12.326;2023-04-27T02:06:12;100594.78;;;4.95;69.60
15998;BME280;8103;51.340;12.326;2023-04-27T02:08:39;100597.66;;;4.93;69.53
15998;BME280;8103;51.340;12.326;2023-04-27T02:11:06;100604.00;;;4.92;69.93
15998;BME280;8103;51.340;12.326;2023-04-27T02:13:33;100603.38;;;4.90;70.01
15998;BME280;8103;51.340;12.326;2023-04-27T02:16:00;100599.09;;;4.89;70.85
15998;BME280;8103;51.340;12.326;2023-04-27T02:18:29;100605.44;;;4.88;69.74
15998;BME280;8103;51.340;12.326;2023-04-27T02:20:56;100605.44;;;4.88;70.69
15998;BME280;8103;51.340;12.326;2023-04-27T02:23:23;100611.16;;;4.85;69.84
15998;BME280;8103;51.340;12.326;2023-04-27T02:25:50;100607.03;;;4.83;70.00
15998;BME280;8103;51.340;12.326;2023-04-27T02:28:17;100609.31;;;4.79;69.88
15998;BME280;8103;51.340;12.326;2023-04-27T02:30:43;100609.09;;;4.74;70.29
15998;BME280;8103;51.340;12.326;2023-04-27T02:33:10;100608.91;;;4.69;70.19
15998;BME280;8103;51.340;12.326;2023-04-27T02:35:37;100617.69;;;4.63;70.75
15998;BME280;8103;51.340;12.326;2023-04-27T02:38:05;100613.78;;;4.59;71.05
15998;BME280;8103;51.340;12.326;2023-04-27T02:40:32;100616.84;;;4.56;70.67
15998;BME280;8103;51.340;12.326;2023-04-27T02:42:59;100623.78;;;4.57;70.95
15998;BME280;8103;51.340;12.326;2023-04-27T02:45:26;100618.09;;;4.60;71.41
15998;BME280;8103;51.340;12.326;2023-04-27T02:47:54;100616.66;;;4.64;71.41
15998;BME280;8103;51.340;12.326;2023-04-27T02:50:21;100619.31;;;4.64;71.13
15998;BME280;8103;51.340;12.326;2023-04-27T02:52:48;100620.13;;;4.65;71.34
15998;BME280;8103;51.340;12.326;2023-04-27T02:55:14;100620.34;;;4.63;71.50
15998;BME280;8103;51.340;12.326;2023-04-27T02:57:42;100618.69;;;4.62;71.00
15998;BME280;8103;51.340;12.326;2023-04-27T03:00:09;100622.16;;;4.63;71.55
15998;BME280;8103;51.340;12.326;2023-04-27T03:02:36;100625.03;;;4.61;71.16
15998;BME280;8103;51.340;12.326;2023-04-27T03:05:04;100630.31;;;4.61;71.66
15998;BME280;8103;51.340;12.326;2023-04-27T03:07:31;100626.25;;;4.59;71.94
15998;BME280;8103;51.340;12.326;2023-04-27T03:09:58;100630.72;;;4.58;72.20
15998;BME280;8103;51.340;12.326;2023-04-27T03:12:25;100637.66;;;4.59;71.65
15998;BME280;8103;51.340;12.326;2023-04-27T03:14:52;100645.63;;;4.59;71.73
15998;BME280;8103;51.340;12.326;2023-04-27T03:17:19;100644.63;;;4.60;72.17
15998;BME280;8103;51.340;12.326;2023-04-27T03:19:47;100644.63;;;4.60;71.63
15998;BME280;8103;51.340;12.326;2023-04-27T03:22:14;100651.56;;;4.61;71.50
15998;BME280;8103;51.340;12.326;2023-04-27T03:24:41;100649.94;;;4.60;71.41
15998;BME280;8103;51.340;12.326;2023-04-27T03:27:08;100650.34;;;4.57;72.33
15998;BME280;8103;51.340;12.326;2023-04-27T03:29:35;100647.06;;;4.55;71.51
15998;BME280;8103;51.340;12.326;2023-04-27T03:32:03;100645.44;;;4.54;71.74
15998;BME280;8103;51.340;12.326;2023-04-27T03:34:30;100647.88;;;4.56;72.07
15998;BME280;8103;51.340;12.326;2023-04-27T03:36:57;100647.06;;;4.55;71.99
15998;BME280;8103;51.340;12.326;2023-04-27T03:39:24;100641.34;;;4.52;71.95
15998;BME280;8103;51.340;12.326;2023-04-27T03:41:51;100651.97;;;4.52;71.60
15998;BME280;8103;51.340;12.326;2023-04-27T03:44:18;100653.41;;;4.54;71.76
15998;BME280;8103;51.340;12.326;2023-04-27T03:46:45;100651.53;;;4.55;71.88
15998;BME280;8103;51.340;12.326;2023-04-27T03:49:12;100656.06;;;4.54;72.59
15998;BME280;8103;51.340;12.326;2023-04-27T03:51:39;100658.72;;;4.54;72.78
15998;BME280;8103;51.340;12.326;2023-04-27T03:54:08;100664.81;;;4.55;73.17
15998;BME280;8103;51.340;12.326;2023-04-27T03:56:36;100662.16;;;4.55;72.71
15998;BME280;8103;51.340;12.326;2023-04-27T03:59:04;100670.75;;;4.57;72.81
15998;BME280;8103;51.340;12.326;2023-04-27T04:01:31;100669.13;;;4.62;72.79
15998;BME280;8103;51.340;12.326;2023-04-27T04:03:59;100677.31;;;4.67;72.46
15998;BME280;8103;51.340;12.326;2023-04-27T04:06:26;100683.44;;;4.74;72.94
15998;BME280;8103;51.340;12.326;2023-04-27T04:08:54;100689.78;;;4.80;72.22
15998;BME280;8103;51.340;12.326;2023-04-27T04:11:21;100690.44;;;4.88;72.21
15998;BME280;8103;51.340;12.326;2023-04-27T04:13:48;100695.72;;;4.95;71.59
15998;BME280;8103;51.340;12.326;2023-04-27T04:16:15;100689.19;;;4.97;71.94
15998;BME280;8103;51.340;12.326;2023-04-27T04:18:43;100699.00;;;5.03;71.97
15998;BME280;8103;51.340;12.326;2023-04-27T04:21:10;100697.38;;;5.15;71.75
15998;BME280;8103;51.340;12.326;2023-04-27T04:23:38;100692.88;;;5.16;70.82
15998;BME280;8103;51.340;12.326;2023-04-27T04:26:06;100691.25;;;5.21;70.73
15998;BME280;8103;51.340;12.326;2023-04-27T04:28:35;100692.47;;;5.25;70.10
15998;BME280;8103;51.340;12.326;2023-04-27T04:31:02;100693.72;;;5.29;70.25
15998;BME280;8103;51.340;12.326;2023-04-27T04:33:31;100700.84;;;5.35;70.24
15998;BME280;8103;51.340;12.326;2023-04-27T04:35:58;100693.69;;;5.36;69.46
15998;BME280;8103;51.340;12.326;2023-04-27T04:38:25;100684.69;;;5.37;70.27
15998;BME280;8103;51.340;12.326;2023-04-27T04:40:53;100691.22;;;5.47;69.79
15998;BME280;8103;51.340;12.326;2023-04-27T04:43:19;100685.66;;;5.62;69.50
15998;BME280;8103;51.340;12.326;2023-04-27T04:45:47;100695.69;;;5.66;68.87
15998;BME280;8103;51.340;12.326;2023-04-27T04:48:16;100686.66;;;5.74;69.36
15998;BME280;8103;51.340;12.326;2023-04-27T04:50:45;100696.31;;;5.81;68.92
15998;BME280;8103;51.340;12.326;2023-04-27T04:53:12;100689.91;;;5.95;68.74
15998;BME280;8103;51.340;12.326;2023-04-27T04:55:39;100692.13;;;6.05;68.73
15998;BME280;8103;51.340;12.326;2023-04-27T04:58:06;100693.13;;;6.10;68.10
15998;BME280;8103;51.340;12.326;2023-04-27T05:00:33;100691.25;;;6.17;67.55
15998;BME280;8103;51.340;12.326;2023-04-27T05:03:00;100701.69;;;6.25;67.67
15998;BME280;8103;51.340;12.326;2023-04-27T05:05:27;100700.91;;;6.18;67.06
15998;BME280;8103;51.340;12.326;2023-04-27T05:07:55;100696.38;;;6.19;67.16
15998;BME280;8103;51.340;12.326;2023-04-27T05:10:22;100695.31;;;6.26;67.29
15998;BME280;8103;51.340;12.326;2023-04-27T05:12:50;100686.91;;;6.29;67.24
15998;BME280;8103;51.340;12.326;2023-04-27T05:15:20;100689.34;;;6.37;66.67
15998;BME280;8103;51.340;12.326;2023-04-27T05:17:47;100695.88;;;6.41;66.36
15998;BME280;8103;51.340;12.326;2023-04-27T05:20:14;100693.81;;;6.43;66.34
15998;BME280;8103;51.340;12.326;2023-04-27T05:22:41;100693.97;;;6.48;66.21
15998;BME280;8103;51.340;12.326;2023-04-27T05:25:09;100697.84;;;6.52;66.39
15998;BME280;8103;51.340;12.326;2023-04-27T05:27:37;100689.44;;;6.55;66.59
15998;BME280;8103;51.340;12.326;2023-04-27T05:30:07;100698.00;;;6.64;66.40
15998;BME280;8103;51.340;12.326;2023-04-27T05:32:34;100698.56;;;6.73;65.95
15998;BME280;8103;51.340;12.326;2023-04-27T05:35:04;100696.06;;;6.78;65.29
15998;BME280;8103;51.340;12.326;2023-04-27T05:37:32;100696.84;;;6.85;65.61
15998;BME280;8103;51.340;12.326;2023-04-27T05:39:59;100692.97;;;6.81;65.43
15998;BME280;8103;51.340;12.326;2023-04-27T05:42:26;100701.75;;;6.88;65.87
15998;BME280;8103;51.340;12.326;2023-04-27T05:44:53;100705.75;;;6.97;64.34
15998;BME280;8103;51.340;12.326;2023-04-27T05:47:19;100705.75;;;6.97;64.42
15998;BME280;8103;51.340;12.326;2023-04-27T05:49:51;100701.69;;;6.94;64.79
15998;BME280;8103;51.340;12.326;2023-04-27T05:52:21;100706.16;;;7.00;64.39
15998;BME280;8103;51.340;12.326;2023-04-27T05:54:49;100698.78;;;7.02;64.63
15998;BME280;8103;51.340;12.326;2023-04-27T05:57:17;100695.88;;;7.04;65.02
15998;BME280;8103;51.340;12.326;2023-04-27T05:59:44;100697.00;;;7.14;64.58
15998;BME280;8103;51.340;12.326;2023-04-27T06:02:11;100706.78;;;7.27;63.86
15998;BME280;8103;51.340;12.326;2023-04-27T06:04:38;100699.31;;;7.35;63.48
15998;BME280;8103;51.340;12.326;2023-04-27T06:07:09;100699.69;;;7.39;63.43
15998;BME280;8103;51.340;12.326;2023-04-27T06:09:37;100701.28;;;7.46;62.99
15998;BME280;8103;51.340;12.326;2023-04-27T06:12:05;100700.63;;;7.69;62.88
15998;BME280;8103;51.340;12.326;2023-04-27T06:14:35;100702.50;;;7.86;62.76
15998;BME280;8103;51.340;12.326;2023-04-27T06:17:03;100711.03;;;7.95;62.86
15998;BME280;8103;51.340;12.326;2023-04-27T06:19:30;100717.47;;;8.05;62.42
15998;BME280;8103;51.340;12.326;2023-04-27T06:21:59;100717.41;;;8.12;62.54
15998;BME280;8103;51.340;12.326;2023-04-27T06:24:27;100716.25;;;8.26;62.13
15998;BME280;8103;51.340;12.326;2023-04-27T06:26:54;100712.59;;;8.38;61.78
15998;BME280;8103;51.340;12.326;2023-04-27T06:29:30;100710.44;;;8.47;61.38
15998;BME280;8103;51.340;12.326;2023-04-27T06:35:57;100722.38;;;8.74;60.62
15998;BME280;8103;51.340;12.326;2023-04-27T06:38:24;100720.56;;;8.86;60.20
15998;BME280;8103;51.340;12.326;2023-04-27T06:40:53;100724.31;;;8.85;60.33
15998;BME280;8103;51.340;12.326;2023-04-27T06:43:21;100727.84;;;8.97;60.11
15998;BME280;8103;51.340;12.326;2023-04-27T06:45:48;100721.63;;;9.26;59.68
15998;BME280;8103;51.340;12.326;2023-04-27T06:48:15;100719.78;;;9.38;59.05
15998;BME280;8103;51.340;12.326;2023-04-27T06:50:43;100726.88;;;9.79;57.91
15998;BME280;8103;51.340;12.326;2023-04-27T06:53:09;100721.50;;;10.13;56.78
15998;BME280;8103;51.340;12.326;2023-04-27T06:55:36;100725.00;;;10.53;55.23
15998;BME280;8103;51.340;12.326;2023-04-27T06:58:04;100732.34;;;10.58;55.07
15998;BME280;8103;51.340;12.326;2023-04-27T07:00:31;100720.13;;;10.78;55.05
15998;BME280;8103;51.340;12.326;2023-04-27T07:02:58;100727.88;;;10.92;54.05
15998;BME280;8103;51.340;12.326;2023-04-27T07:05:25;100728.00;;;11.30;53.71
15998;BME280;8103;51.340;12.326;2023-04-27T07:07:55;100735.78;;;11.76;52.10
15998;BME280;8103;51.340;12.326;2023-04-27T07:10:22;100738.75;;;12.17;50.78
15998;BME280;8103;51.340;12.326;2023-04-27T07:12:48;100735.44;;;12.10;50.56
15998;BME280;8103;51.340;12.326;2023-04-27T07:15:15;100743.13;;;12.02;50.25
15998;BME280;8103;51.340;12.326;2023-04-27T07:21:49;100744.97;;;12.61;49.84
15998;BME280;8103;51.340;12.326;2023-04-27T07:24:16;100737.38;;;12.79;49.18
15998;BME280;8103;51.340;12.326;2023-04-27T07:26:43;100743.16;;;12.93;49.03
15998;BME280;8103;51.340;12.326;2023-04-27T07:29:10;100746.81;;;12.82;48.74
15998;BME280;8103;51.340;12.326;2023-04-27T07:31:51;100739.91;;;12.91;49.32
15998;BME280;8103;51.340;12.326;2023-04-27T07:38:26;100752.78;;;13.11;47.50
15998;BME280;8103;51.340;12.326;2023-04-27T07:40:57;100757.34;;;13.37;46.79
15998;BME280;8103;51.340;12.326;2023-04-27T07:43:26;100756.47;;;13.63;46.11
15998;BME280;8103;51.340;12.326;2023-04-27T07:45:53;100763.72;;;13.57;45.66
15998;BME280;8103;51.340;12.326;2023-04-27T07:48:23;100755.03;;;13.87;45.60
15998;BME280;8103;51.340;12.326;2023-04-27T07:50:50;100759.94;;;14.36;44.78
15998;BME280;8103;51.340;12.326;2023-04-27T07:53:17;100753.56;;;14.57;44.33
15998;BME280;8103;51.340;12.326;2023-04-27T07:55:46;100753.59;;;14.72;44.39
15998;BME280;8103;51.340;12.326;2023-04-27T07:58:13;100758.94;;;14.57;43.86
15998;BME280;8103;51.340;12.326;2023-04-27T08:00:40;100763.75;;;14.50;44.46
15998;BME280;8103;51.340;12.326;2023-04-27T08:03:07;100766.78;;;14.64;44.03
15998;BME280;8103;51.340;12.326;2023-04-27T08:05:34;100768.69;;;14.68;43.73
15998;BME280;8103;51.340;12.326;2023-04-27T08:08:02;100770.19;;;15.21;42.74
15998;BME280;8103;51.340;12.326;2023-04-27T08:10:28;100765.09;;;15.60;41.98
15998;BME280;8103;51.340;12.326;2023-04-27T08:12:55;100765.91;;;15.80;41.64
15998;BME280;8103;51.340;12.326;2023-04-27T08:15:22;100765.63;;;15.97;41.15
15998;BME280;8103;51.340;12.326;2023-04-27T08:17:49;100767.75;;;16.10;40.65
15998;BME280;8103;51.340;12.326;2023-04-27T08:20:16;100765.06;;;16.05;40.42
15998;BME280;8103;51.340;12.326;2023-04-27T08:22:43;100761.22;;;16.21;40.29
15998;BME280;8103;51.340;12.326;2023-04-27T08:25:10;100764.56;;;15.88;39.65
15998;BME280;8103;51.340;12.326;2023-04-27T08:27:38;100765.00;;;16.30;39.94
15998;BME280;8103;51.340;12.326;2023-04-27T08:30:08;100765.47;;;16.57;39.45
15998;BME280;8103;51.340;12.326;2023-04-27T08:32:36;100759.47;;;16.65;38.64
15998;BME280;8103;51.340;12.326;2023-04-27T08:35:05;100762.69;;;16.72;38.24
15998;BME280;8103;51.340;12.326;2023-04-27T08:37:32;100762.69;;;16.72;38.24
15998;BME280;8103;51.340;12.326;2023-04-27T08:40:00;100761.25;;;17.95;36.66
15998;BME280;8103;51.340;12.326;2023-04-27T08:42:26;100747.13;;;18.22;35.63
15998;BME280;8103;51.340;12.326;2023-04-27T08:44:54;100741.38;;;19.31;33.71
15998;BME280;8103;51.340;12.326;2023-04-27T08:47:21;66331.75;;;-142.58;100.00
15998;BME280;8103;51.340;12.326;2023-04-27T08:50:00;66331.75;;;-142.58;100.00
15998;BME280;8103;51.340;12.326;2023-04-27T08:52:29;66331.75;;;-142.58;100.00
15998;BME280;8103;51.340;12.326;2023-04-27T08:58:57;66331.75;;;-142.58;100.00
15998;BME280;8103;51.340;12.326;2023-04-27T09:01:25;66331.75;;;-142.58;100.00
15998;BME280;8103;51.340;12.326;2023-04-27T09:04:00;66331.75;;;-142.58;100.00
15998;BME280;8103;51.340;12.326;2023-04-27T09:06:34;66331.75;;;-142.58;100.00
15998;BME280;8103;51.340;12.326;2023-04-27T09:09:02;66331.75;;;-142.58;100.00
15998;BME280;8103;51.340;12.326;2023-04-27T09:11:32;66331.75;;;-142.58;100.00
15998;BME280;8103;51.340;12.326;2023-04-27T09:14:17;66331.75;;;-142.58;100.00
15998;BME280;8103;51.340;12.326;2023-04-27T09:16:45;66331.75;;;-142.58;100.00
15998;BME280;8103;51.340;12.326;2023-04-27T09:19:26;66331.75;;;-142.58;100.00
15998;BME280;8103;51.340;12.326;2023-04-27T09:22:08;66331.75;;;-142.58;100.00
15998;BME280;8103;51.340;12.326;2023-04-27T09:24:36;66331.75;;;-142.58;100.00
15998;BME280;8103;51.340;12.326;2023-04-27T09:27:05;66331.75;;;-142.58;100.00
15998;BME280;8103;51.340;12.326;2023-04-27T09:29:37;66331.75;;;-142.58;100.00
15998;BME280;8103;51.340;12.326;2023-04-27T09:32:17;66331.75;;;-142.58;100.00
15998;BME280;8103;51.340;12.326;2023-04-27T09:34:46;66331.75;;;-142.58;100.00
15998;BME280;8103;51.340;12.326;2023-04-27T09:37:13;66331.75;;;-142.58;100.00
15998;BME280;8103;51.340;12.326;2023-04-27T09:39:41;66331.75;;;-142.58;100.00
15998;BME280;8103;51.340;12.326;2023-04-27T09:42:11;66331.75;;;-142.58;100.00
15998;BME280;8103;51.340;12.326;2023-04-27T09:44:38;66331.75;;;-142.58;100.00
15998;BME280;8103;51.340;12.326;2023-04-27T09:47:06;66331.75;;;-142.58;100.00
15998;BME280;8103;51.340;12.326;2023-04-27T09:49:33;66331.75;;;-142.58;100.00
15998;BME280;8103;51.340;12.326;2023-04-27T09:52:00;66331.75;;;-142.58;100.00
15998;BME280;8103;51.340;12.326;2023-04-27T09:54:32;66331.75;;;-142.58;100.00
15998;BME280;8103;51.340;12.326;2023-04-27T09:57:27;66331.75;;;-142.58;100.00
15998;BME280;8103;51.340;12.326;2023-04-27T10:03:18;66331.75;;;-142.58;100.00
15998;BME280;8103;51.340;12.326;2023-04-27T10:09:03;66331.75;;;-142.58;100.00
15998;BME280;8103;51.340;12.326;2023-04-27T10:11:43;66331.75;;;-142.58;100.00
15998;BME280;8103;51.340;12.326;2023-04-27T10:14:20;100740.72;;;19.85;33.29
15998;BME280;8103;51.340;12.326;2023-04-27T10:16:56;100705.84;;;28.05;19.35
15998;BME280;8103;51.340;12.326;2023-04-27T10:19:24;100711.66;;;24.29;22.92
15998;BME280;8103;51.340;12.326;2023-04-27T10:21:59;100707.66;;;22.05;25.75
15998;BME280;8103;51.340;12.326;2023-04-27T10:24:40;100718.88;;;21.07;27.14
15998;BME280;8103;51.340;12.326;2023-04-27T10:27:10;100717.00;;;20.17;28.48
15998;BME280;8103;51.340;12.326;2023-04-27T10:29:43;100724.75;;;19.65;29.33
15998;BME280;8103;51.340;12.326;2023-04-27T10:32:23;66331.75;;;-142.58;100.00
15998;BME280;8103;51.340;12.326;2023-04-27T10:35:07;100732.34;;;18.56;31.13
15998;BME280;8103;51.340;12.326;2023-04-27T10:37:42;100729.06;;;18.12;31.51
15998;BME280;8103;51.340;12.326;2023-04-27T10:40:13;100731.84;;;17.50;32.57
15998;BME280;8103;51.340;12.326;2023-04-27T10:42:45;100728.75;;;17.62;32.88
15998;BME280;8103;51.340;12.326;2023-04-27T10:45:12;100718.03;;;19.07;31.57
15998;BME280;8103;51.340;12.326;2023-04-27T10:47:44;100711.28;;;24.39;24.29
15998;BME280;8103;51.340;12.326;2023-04-27T10:50:12;100711.66;;;26.41;21.68
15998;BME280;8103;51.340;12.326;2023-04-27T10:52:43;100717.81;;;25.25;22.38
15998;BME280;8103;51.340;12.326;2023-04-27T10:55:16;100724.09;;;23.72;24.12
15998;BME280;8103;51.340;12.326;2023-04-27T10:57:52;100726.53;;;22.62;25.12
15998;BME280;8103;51.340;12.326;2023-04-27T11:02:52;100723.72;;;19.61;29.00
15998;BME280;8103;51.340;12.326;2023-04-27T11:05:22;100719.09;;;18.73;29.86
15998;BME280;8103;51.340;12.326;2023-04-27T11:07:51;100722.00;;;18.11;30.79
15998;BME280;8103;51.340;12.326;2023-04-27T11:10:19;100714.88;;;19.18;30.26
15998;BME280;8103;51.340;12.326;2023-04-27T11:12:46;100714.97;;;21.65;26.79
15998;BME280;8103;51.340;12.326;2023-04-27T11:15:13;100715.75;;;22.74;25.07
15998;BME280;8103;51.340;12.326;2023-04-27T11:17:42;100711.94;;;27.83;20.58
15998;BME280;8103;51.340;12.326;2023-04-27T11:20:12;100712.06;;;32.51;16.02
15998;BME280;8103;51.340;12.326;2023-04-27T11:22:44;100708.09;;;32.52;15.34
15998;BME280;8103;51.340;12.326;2023-04-27T11:25:12;100720.09;;;29.64;17.08
15998;BME280;8103;51.340;12.326;2023-04-27T11:27:40;100719.97;;;27.60;19.12
15998;BME280;8103;51.340;12.326;2023-04-27T11:30:22;100720.56;;;25.25;21.04
15998;BME280;8103;51.340;12.326;2023-04-27T11:32:49;100715.94;;;23.46;22.82
15998;BME280;8103;51.340;12.326;2023-04-27T11:35:17;100715.94;;;23.46;22.82
15998;BME280;8103;51.340;12.326;2023-04-27T11:37:55;100716.34;;;22.54;23.95
15998;BME280;8103;51.340;12.326;2023-04-27T11:40:24;100715.78;;;21.66;24.59
15998;BME280;8103;51.340;12.326;2023-04-27T11:42:58;100713.09;;;20.59;25.48
15998;BME280;8103;51.340;12.326;2023-04-27T11:45:26;100718.78;;;20.35;25.78
15998;BME280;8103;51.340;12.326;2023-04-27T11:47:53;100720.13;;;19.79;27.02
15998;BME280;8103;51.340;12.326;2023-04-27T11:50:23;100717.44;;;19.47;27.78
15998;BME280;8103;51.340;12.326;2023-04-27T11:52:53;100717.25;;;18.87;28.38
15998;BME280;8103;51.340;12.326;2023-04-27T11:55:21;100718.94;;;19.21;28.45
15998;BME280;8103;51.340;12.326;2023-04-27T11:57:55;100704.50;;;23.02;24.13
15998;BME280;8103;51.340;12.326;2023-04-27T12:04:28;100707.56;;;20.64;25.65
15998;BME280;8103;51.340;12.326;2023-04-27T12:06:56;100719.09;;;19.61;26.81
15998;BME280;8103;51.340;12.326;2023-04-27T12:13:30;100723.63;;;18.78;28.74
15998;BME280;8103;51.340;12.326;2023-04-27T12:15:57;100717.16;;;21.77;25.90
15998;BME280;8103;51.340;12.326;2023-04-27T12:18:26;100707.16;;;25.24;21.86
15998;BME280;8103;51.340;12.326;2023-04-27T12:20:53;100709.38;;;24.89;21.75
15998;BME280;8103;51.340;12.326;2023-04-27T12:23:20;100706.94;;;24.09;22.52
15998;BME280;8103;51.340;12.326;2023-04-27T12:25:47;100714.75;;;23.73;22.70
15998;BME280;8103;51.340;12.326;2023-04-27T12:28:14;100707.06;;;23.49;23.08
15998;BME280;8103;51.340;12.326;2023-04-27T12:30:44;100710.81;;;23.45;23.24
15998;BME280;8103;51.340;12.326;2023-04-27T12:33:11;100703.09;;;23.30;23.41
15998;BME280;8103;51.340;12.326;2023-04-27T12:35:38;100709.97;;;23.53;22.83
15998;BME280;8103;51.340;12.326;2023-04-27T12:38:05;100702.63;;;25.60;20.71
15998;BME280;8103;51.340;12.326;2023-04-27T12:40:33;100696.75;;;27.89;19.21
15998;BME280;8103;51.340;12.326;2023-04-27T12:43:00;100705.03;;;28.04;18.51
15998;BME280;8103;51.340;12.326;2023-04-27T12:45:27;100698.81;;;28.23;18.23
15998;BME280;8103;51.340;12.326;2023-04-27T12:47:54;100699.06;;;31.06;16.25
15998;BME280;8103;51.340;12.326;2023-04-27T12:50:30;100695.19;;;34.16;14.17
15998;BME280;8103;51.340;12.326;2023-04-27T12:56:39;100699.25;;;38.72;11.15
15998;BME280;8103;51.340;12.326;2023-04-27T12:59:07;100692.66;;;39.02;11.32
15998;BME280;8103;51.340;12.326;2023-04-27T13:01:34;100697.44;;;37.06;12.36
15998;BME280;8103;51.340;12.326;2023-04-27T13:04:03;100697.25;;;32.98;14.17
15998;BME280;8103;51.340;12.326;2023-04-27T13:06:31;100693.66;;;31.86;15.09
15998;BME280;8103;51.340;12.326;2023-04-27T13:08:58;100683.94;;;32.09;14.73
15998;BME280;8103;51.340;12.326;2023-04-27T13:11:26;100686.81;;;34.19;13.20
15998;BME280;8103;51.340;12.326;2023-04-27T13:13:52;100687.78;;;35.89;12.36
15998;BME280;8103;51.340;12.326;2023-04-27T13:16:20;100685.19;;;36.93;11.88
15998;BME280;8103;51.340;12.326;2023-04-27T13:18:50;100684.25;;;36.73;11.68
15998;BME280;8103;51.340;12.326;2023-04-27T13:21:18;100682.13;;;37.74;11.16
15998;BME280;8103;51.340;12.326;2023-04-27T13:23:45;100682.19;;;38.63;10.22
15998;BME280;8103;51.340;12.326;2023-04-27T13:26:14;100677.81;;;37.93;10.65
15998;BME280;8103;51.340;12.326;2023-04-27T13:28:42;100684.09;;;38.00;10.47
15998;BME280;8103;51.340;12.326;2023-04-27T13:31:09;100677.38;;;37.11;11.01
15998;BME280;8103;51.340;12.326;2023-04-27T13:33:43;100666.31;;;35.07;11.71
15998;BME280;8103;51.340;12.326;2023-04-27T13:36:12;100665.47;;;36.33;11.76